sensor_id;sensor_type;location;lat;lon;timestamp;temperature;humidity
46720;DHT22;32452;51.382;-0.002;2024-03-02T00:02:31;4.60;99.90
46720;DHT22;32452;51.382;-0.002;2024-03-02T00:05:21;4.60;99.90
46720;DHT22;32452;51.382;-0.002;2024-03-02T00:08:07;4.60;99.90
46720;DHT22;32452;51.382;-0.002;2024-03-02T00:11:02;4.60;99.90
46720;DHT22;32452;51.382;-0.002;2024-03-02T00:13:48;4.50;99.90
46720;DHT22;32452;51.382;-0.002;2024-03-02T00:16:33;4.50;99.90
46720;DHT22;32452;51.382;-0.002;2024-03-02T00:19:19;4.50;99.90
46720;DHT22;32452;51.382;-0.002;2024-03-02T00:22:05;4.50;99.90
46720;DHT22;32452;51.382;-0.002;2024-03-02T00:24:50;4.50;99.90
46720;DHT22;32452;51.382;-0.002;2024-03-02T00:27:36;4.50;99.90
46720;DHT22;32452;51.382;-0.002;2024-03-02T00:33:17;4.50;99.90
46720;DHT22;32452;51.382;-0.002;2024-03-02T00:36:04;4.50;99.90
46720;DHT22;32452;51.382;-0.002;2024-03-02T00:38:52;4.50;99.90
46720;DHT22;32452;51.382;-0.002;2024-03-02T00:41:41;4.50;99.90
46720;DHT22;32452;51.382;-0.002;2024-03-02T00:44:28;4.40;99.90
46720;DHT22;32452;51.382;-0.002;2024-03-02T00:47:21;4.40;99.90
46720;DHT22;32452;51.382;-0.002;2024-03-02T00:50:07;4.40;99.90
46720;DHT22;32452;51.382;-0.002;2024-03-02T00:53:04;4.40;99.90
46720;DHT22;32452;51.382;-0.002;2024-03-02T00:55:50;4.40;99.90
46720;DHT22;32452;51.382;-0.002;2024-03-02T00:58:36;4.40;99.90
46720;DHT22;32452;51.382;-0.002;2024-03-02T01:01:21;4.40;99.90
46720;DHT22;32452;51.382;-0.002;2024-03-02T01:04:07;4.40;99.90
46720;DHT22;32452;51.382;-0.002;2024-03-02T01:06:53;4.40;99.90
46720;DHT22;32452;51.382;-0.002;2024-03-02T01:09:38;4.40;99.90
46720;DHT22;32452;51.382;-0.002;2024-03-02T01:12:24;4.40;99.90
46720;DHT22;32452;51.382;-0.002;2024-03-02T01:15:10;4.40;99.90
46720;DHT22;32452;51.382;-0.002;2024-03-02T01:17:55;4.40;99.90
46720;DHT22;32452;51.382;-0.002;2024-03-02T01:20:41;4.40;99.90
46720;DHT22;32452;51.382;-0.002;2024-03-02T01:23:26;4.40;99.90
46720;DHT22;32452;51.382;-0.002;2024-03-02T01:26:12;4.40;99.90
46720;DHT22;32452;51.382;-0.002;2024-03-02T01:28:57;4.30;99.90
46720;DHT22;32452;51.382;-0.002;2024-03-02T01:31:43;4.30;99.90
46720;DHT22;32452;51.382;-0.002;2024-03-02T01:34:28;4.40;99.90
46720;DHT22;32452;51.382;-0.002;2024-03-02T01:37:14;4.40;99.90
46720;DHT22;32452;51.382;-0.002;2024-03-02T01:40:00;4.40;99.90
46720;DHT22;32452;51.382;-0.002;2024-03-02T01:42:45;4.50;99.90
46720;DHT22;32452;51.382;-0.002;2024-03-02T01:45:31;4.50;99.90
46720;DHT22;32452;51.382;-0.002;2024-03-02T01:48:17;4.60;99.90
46720;DHT22;32452;51.382;-0.002;2024-03-02T01:51:04;4.60;99.90
46720;DHT22;32452;51.382;-0.002;2024-03-02T01:53:51;4.70;99.90
46720;DHT22;32452;51.382;-0.002;2024-03-02T01:56:37;4.70;99.90
46720;DHT22;32452;51.382;-0.002;2024-03-02T01:59:23;4.70;99.90
46720;DHT22;32452;51.382;-0.002;2024-03-02T02:02:08;4.70;99.90
46720;DHT22;32452;51.382;-0.002;2024-03-02T02:04:54;4.70;99.90
46720;DHT22;32452;51.382;-0.002;2024-03-02T02:07:40;4.70;99.90
46720;DHT22;32452;51.382;-0.002;2024-03-02T02:10:27;4.80;99.90
46720;DHT22;32452;51.382;-0.002;2024-03-02T02:13:12;4.90;99.90
46720;DHT22;32452;51.382;-0.002;2024-03-02T02:16:08;4.90;99.90
46720;DHT22;32452;51.382;-0.002;2024-03-02T02:18:54;5.00;99.90
46720;DHT22;32452;51.382;-0.002;2024-03-02T02:21:42;5.00;99.90
46720;DHT22;32452;51.382;-0.002;2024-03-02T02:24:28;5.10;99.90
46720;DHT22;32452;51.382;-0.002;2024-03-02T02:27:14;5.20;99.90
46720;DHT22;32452;51.382;-0.002;2024-03-02T02:30:00;5.20;99.90
46720;DHT22;32452;51.382;-0.002;2024-03-02T02:32:48;5.20;99.90
46720;DHT22;32452;51.382;-0.002;2024-03-02T02:35:34;5.30;99.90
46720;DHT22;32452;51.382;-0.002;2024-03-02T02:38:19;5.30;99.90
46720;DHT22;32452;51.382;-0.002;2024-03-02T02:41:05;5.30;99.90
46720;DHT22;32452;51.382;-0.002;2024-03-02T02:43:50;5.30;99.90
46720;DHT22;32452;51.382;-0.002;2024-03-02T02:46:36;5.30;99.90
46720;DHT22;32452;51.382;-0.002;2024-03-02T02:49:22;5.30;99.90
46720;DHT22;32452;51.382;-0.002;2024-03-02T02:52:07;5.40;99.90
46720;DHT22;32452;51.382;-0.002;2024-03-02T02:54:53;5.40;99.90
46720;DHT22;32452;51.382;-0.002;2024-03-02T02:57:40;5.40;99.90
46720;DHT22;32452;51.382;-0.002;2024-03-02T03:00:27;5.50;99.90
46720;DHT22;32452;51.382;-0.002;2024-03-02T03:03:12;5.50;99.90
46720;DHT22;32452;51.382;-0.002;2024-03-02T03:05:58;5.50;99.90
46720;DHT22;32452;51.382;-0.002;2024-03-02T03:08:43;5.50;99.90
46720;DHT22;32452;51.382;-0.002;2024-03-02T03:11:29;5.50;99.90
46720;DHT22;32452;51.382;-0.002;2024-03-02T03:14:14;5.60;99.90
46720;DHT22;32452;51.382;-0.002;2024-03-02T03:17:00;5.60;99.90
46720;DHT22;32452;51.382;-0.002;2024-03-02T03:19:46;5.60;99.90
46720;DHT22;32452;51.382;-0.002;2024-03-02T03:22:32;5.60;99.90
46720;DHT22;32452;51.382;-0.002;2024-03-02T03:25:17;5.60;99.90
46720;DHT22;32452;51.382;-0.002;2024-03-02T03:28:03;5.60;99.90
46720;DHT22;32452;51.382;-0.002;2024-03-02T03:30:49;5.60;99.90
46720;DHT22;32452;51.382;-0.002;2024-03-02T03:33:34;5.60;99.90
46720;DHT22;32452;51.382;-0.002;2024-03-02T03:36:20;5.70;99.90
46720;DHT22;32452;51.382;-0.002;2024-03-02T03:39:06;5.70;99.90
46720;DHT22;32452;51.382;-0.002;2024-03-02T03:41:51;5.70;99.90
46720;DHT22;32452;51.382;-0.002;2024-03-02T03:44:37;5.60;99.90
46720;DHT22;32452;51.382;-0.002;2024-03-02T03:47:24;5.70;99.90
46720;DHT22;32452;51.382;-0.002;2024-03-02T03:50:10;5.70;99.90
46720;DHT22;32452;51.382;-0.002;2024-03-02T03:52:55;5.70;99.90
46720;DHT22;32452;51.382;-0.002;2024-03-02T03:55:41;5.70;99.90
46720;DHT22;32452;51.382;-0.002;2024-03-02T03:58:26;5.70;99.90
46720;DHT22;32452;51.382;-0.002;2024-03-02T04:01:12;5.80;99.90
46720;DHT22;32452;51.382;-0.002;2024-03-02T04:03:58;5.80;99.90
46720;DHT22;32452;51.382;-0.002;2024-03-02T04:06:44;5.80;99.90
46720;DHT22;32452;51.382;-0.002;2024-03-02T04:09:29;5.80;99.90
46720;DHT22;32452;51.382;-0.002;2024-03-02T04:12:15;5.80;99.90
46720;DHT22;32452;51.382;-0.002;2024-03-02T04:15:02;5.80;99.90
46720;DHT22;32452;51.382;-0.002;2024-03-02T04:17:47;5.80;99.90
46720;DHT22;32452;51.382;-0.002;2024-03-02T04:20:33;5.80;99.90
46720;DHT22;32452;51.382;-0.002;2024-03-02T04:23:18;5.80;99.90
46720;DHT22;32452;51.382;-0.002;2024-03-02T04:26:04;5.80;99.90
46720;DHT22;32452;51.382;-0.002;2024-03-02T04:28:50;5.80;99.90
46720;DHT22;32452;51.382;-0.002;2024-03-02T04:31:35;5.80;99.90
46720;DHT22;32452;51.382;-0.002;2024-03-02T04:34:21;5.70;99.90
46720;DHT22;32452;51.382;-0.002;2024-03-02T04:37:07;5.70;99.90
46720;DHT22;32452;51.382;-0.002;2024-03-02T04:39:53;5.70;99.90
46720;DHT22;32452;51.382;-0.002;2024-03-02T04:42:40;5.80;99.90
46720;DHT22;32452;51.382;-0.002;2024-03-02T04:45:25;5.80;99.90
46720;DHT22;32452;51.382;-0.002;2024-03-02T04:48:11;5.80;99.90
46720;DHT22;32452;51.382;-0.002;2024-03-02T04:50:56;5.80;99.90
46720;DHT22;32452;51.382;-0.002;2024-03-02T04:53:42;5.80;99.90
46720;DHT22;32452;51.382;-0.002;2024-03-02T04:56:28;5.90;99.90
46720;DHT22;32452;51.382;-0.002;2024-03-02T04:59:17;5.90;99.90
46720;DHT22;32452;51.382;-0.002;2024-03-02T05:02:03;5.90;99.90
46720;DHT22;32452;51.382;-0.002;2024-03-02T05:04:49;5.90;99.90
46720;DHT22;32452;51.382;-0.002;2024-03-02T05:07:34;5.90;99.90
46720;DHT22;32452;51.382;-0.002;2024-03-02T05:10:20;5.90;99.90
46720;DHT22;32452;51.382;-0.002;2024-03-02T05:13:06;5.90;99.90
46720;DHT22;32452;51.382;-0.002;2024-03-02T05:15:51;5.90;99.90
46720;DHT22;32452;51.382;-0.002;2024-03-02T05:18:37;5.90;99.90
46720;DHT22;32452;51.382;-0.002;2024-03-02T05:21:23;5.90;99.90
46720;DHT22;32452;51.382;-0.002;2024-03-02T05:24:09;5.90;99.90
46720;DHT22;32452;51.382;-0.002;2024-03-02T05:26:55;5.90;99.90
46720;DHT22;32452;51.382;-0.002;2024-03-02T05:29:40;5.90;99.90
46720;DHT22;32452;51.382;-0.002;2024-03-02T05:32:26;5.90;99.90
46720;DHT22;32452;51.382;-0.002;2024-03-02T05:35:11;5.90;99.90
46720;DHT22;32452;51.382;-0.002;2024-03-02T05:37:58;5.90;99.90
46720;DHT22;32452;51.382;-0.002;2024-03-02T05:40:44;5.90;99.90
46720;DHT22;32452;51.382;-0.002;2024-03-02T05:43:29;5.90;99.90
46720;DHT22;32452;51.382;-0.002;2024-03-02T05:46:15;5.90;99.90
46720;DHT22;32452;51.382;-0.002;2024-03-02T05:49:00;5.90;99.90
46720;DHT22;32452;51.382;-0.002;2024-03-02T05:51:46;5.90;99.90
46720;DHT22;32452;51.382;-0.002;2024-03-02T05:54:32;5.90;99.90
46720;DHT22;32452;51.382;-0.002;2024-03-02T05:57:17;5.90;99.90
46720;DHT22;32452;51.382;-0.002;2024-03-02T06:00:19;5.90;99.90
46720;DHT22;32452;51.382;-0.002;2024-03-02T06:03:05;5.90;99.90
46720;DHT22;32452;51.382;-0.002;2024-03-02T06:05:51;5.90;99.90
46720;DHT22;32452;51.382;-0.002;2024-03-02T06:08:37;5.90;99.90
46720;DHT22;32452;51.382;-0.002;2024-03-02T06:11:23;5.90;99.90
46720;DHT22;32452;51.382;-0.002;2024-03-02T06:14:09;6.00;99.90
46720;DHT22;32452;51.382;-0.002;2024-03-02T06:16:54;6.00;99.90
46720;DHT22;32452;51.382;-0.002;2024-03-02T06:19:40;6.00;99.90
46720;DHT22;32452;51.382;-0.002;2024-03-02T06:22:25;6.00;99.90
46720;DHT22;32452;51.382;-0.002;2024-03-02T06:25:11;6.10;99.90
46720;DHT22;32452;51.382;-0.002;2024-03-02T06:27:56;6.10;99.90
46720;DHT22;32452;51.382;-0.002;2024-03-02T06:30:42;6.10;99.90
46720;DHT22;32452;51.382;-0.002;2024-03-02T06:33:28;6.10;99.90
46720;DHT22;32452;51.382;-0.002;2024-03-02T06:36:14;6.20;99.90
46720;DHT22;32452;51.382;-0.002;2024-03-02T06:39:01;6.20;99.90
46720;DHT22;32452;51.382;-0.002;2024-03-02T06:41:46;6.20;99.90
46720;DHT22;32452;51.382;-0.002;2024-03-02T06:44:32;6.20;99.90
46720;DHT22;32452;51.382;-0.002;2024-03-02T06:47:18;6.20;99.90
46720;DHT22;32452;51.382;-0.002;2024-03-02T06:50:06;6.20;99.90
46720;DHT22;32452;51.382;-0.002;2024-03-02T06:52:52;6.10;99.90
46720;DHT22;32452;51.382;-0.002;2024-03-02T06:55:38;6.10;99.90
46720;DHT22;32452;51.382;-0.002;2024-03-02T06:58:24;6.10;99.90
46720;DHT22;32452;51.382;-0.002;2024-03-02T07:01:09;6.10;99.90
46720;DHT22;32452;51.382;-0.002;2024-03-02T07:03:55;6.00;99.90
46720;DHT22;32452;51.382;-0.002;2024-03-02T07:06:41;6.00;99.90
46720;DHT22;32452;51.382;-0.002;2024-03-02T07:09:26;6.00;99.90
46720;DHT22;32452;51.382;-0.002;2024-03-02T07:12:12;6.00;99.90
46720;DHT22;32452;51.382;-0.002;2024-03-02T07:14:58;6.00;99.90
46720;DHT22;32452;51.382;-0.002;2024-03-02T07:17:49;5.90;99.90
46720;DHT22;32452;51.382;-0.002;2024-03-02T07:20:34;5.90;99.90
46720;DHT22;32452;51.382;-0.002;2024-03-02T07:23:20;6.00;99.90
46720;DHT22;32452;51.382;-0.002;2024-03-02T07:26:08;6.00;99.90
46720;DHT22;32452;51.382;-0.002;2024-03-02T07:28:57;6.00;99.90
46720;DHT22;32452;51.382;-0.002;2024-03-02T07:31:43;6.10;99.90
46720;DHT22;32452;51.382;-0.002;2024-03-02T07:34:28;6.10;99.90
46720;DHT22;32452;51.382;-0.002;2024-03-02T07:37:14;6.30;99.90
46720;DHT22;32452;51.382;-0.002;2024-03-02T07:40:00;6.30;99.90
46720;DHT22;32452;51.382;-0.002;2024-03-02T07:42:46;6.40;99.90
46720;DHT22;32452;51.382;-0.002;2024-03-02T07:45:32;6.50;99.90
46720;DHT22;32452;51.382;-0.002;2024-03-02T07:48:18;6.70;99.90
46720;DHT22;32452;51.382;-0.002;2024-03-02T07:51:04;6.70;99.90
46720;DHT22;32452;51.382;-0.002;2024-03-02T07:53:49;6.80;99.90
46720;DHT22;32452;51.382;-0.002;2024-03-02T07:56:35;6.80;99.90
46720;DHT22;32452;51.382;-0.002;2024-03-02T07:59:21;6.80;99.90
46720;DHT22;32452;51.382;-0.002;2024-03-02T08:02:07;6.80;99.90
46720;DHT22;32452;51.382;-0.002;2024-03-02T08:04:53;6.70;99.90
46720;DHT22;32452;51.382;-0.002;2024-03-02T08:07:38;6.70;99.90
46720;DHT22;32452;51.382;-0.002;2024-03-02T08:10:24;6.70;99.90
46720;DHT22;32452;51.382;-0.002;2024-03-02T08:13:10;6.70;99.90
46720;DHT22;32452;51.382;-0.002;2024-03-02T08:15:55;7.00;99.90
46720;DHT22;32452;51.382;-0.002;2024-03-02T08:18:41;7.30;99.90
46720;DHT22;32452;51.382;-0.002;2024-03-02T08:21:27;7.30;99.90
46720;DHT22;32452;51.382;-0.002;2024-03-02T08:24:16;7.30;99.90
46720;DHT22;32452;51.382;-0.002;2024-03-02T08:27:02;7.30;99.90
46720;DHT22;32452;51.382;-0.002;2024-03-02T08:29:49;7.30;99.90
46720;DHT22;32452;51.382;-0.002;2024-03-02T08:32:34;7.30;99.90
46720;DHT22;32452;51.382;-0.002;2024-03-02T08:35:20;7.30;99.90
46720;DHT22;32452;51.382;-0.002;2024-03-02T08:38:07;7.90;99.90
46720;DHT22;32452;51.382;-0.002;2024-03-02T08:40:53;8.60;99.90
46720;DHT22;32452;51.382;-0.002;2024-03-02T08:43:40;9.00;99.90
46720;DHT22;32452;51.382;-0.002;2024-03-02T08:46:26;9.50;99.90
46720;DHT22;32452;51.382;-0.002;2024-03-02T08:49:12;9.40;99.90
46720;DHT22;32452;51.382;-0.002;2024-03-02T08:51:57;9.00;99.90
46720;DHT22;32452;51.382;-0.002;2024-03-02T08:54:43;8.60;99.90
46720;DHT22;32452;51.382;-0.002;2024-03-02T08:57:28;8.20;99.90
46720;DHT22;32452;51.382;-0.002;2024-03-02T09:00:14;7.90;99.90
46720;DHT22;32452;51.382;-0.002;2024-03-02T09:03:00;7.70;99.90
46720;DHT22;32452;51.382;-0.002;2024-03-02T09:05:46;7.50;99.90
46720;DHT22;32452;51.382;-0.002;2024-03-02T09:08:34;7.30;99.90
46720;DHT22;32452;51.382;-0.002;2024-03-02T09:11:21;7.10;99.90
46720;DHT22;32452;51.382;-0.002;2024-03-02T09:14:07;7.10;99.90
46720;DHT22;32452;51.382;-0.002;2024-03-02T09:16:53;7.60;99.90
46720;DHT22;32452;51.382;-0.002;2024-03-02T09:19:39;8.40;99.90
46720;DHT22;32452;51.382;-0.002;2024-03-02T09:22:26;9.20;99.90
46720;DHT22;32452;51.382;-0.002;2024-03-02T09:25:12;10.10;99.90
46720;DHT22;32452;51.382;-0.002;2024-03-02T09:27:58;10.80;99.90
46720;DHT22;32452;51.382;-0.002;2024-03-02T09:30:44;11.30;99.90
46720;DHT22;32452;51.382;-0.002;2024-03-02T09:33:29;11.60;99.90
46720;DHT22;32452;51.382;-0.002;2024-03-02T09:36:19;12.00;99.90
46720;DHT22;32452;51.382;-0.002;2024-03-02T09:39:07;12.40;99.90
46720;DHT22;32452;51.382;-0.002;2024-03-02T09:41:55;12.50;99.90
46720;DHT22;32452;51.382;-0.002;2024-03-02T09:44:41;12.50;99.90
46720;DHT22;32452;51.382;-0.002;2024-03-02T09:47:27;12.60;99.90
46720;DHT22;32452;51.382;-0.002;2024-03-02T09:50:13;12.90;99.60
46720;DHT22;32452;51.382;-0.002;2024-03-02T09:52:59;12.80;98.60
46720;DHT22;32452;51.382;-0.002;2024-03-02T09:55:48;12.00;97.70
46720;DHT22;32452;51.382;-0.002;2024-03-02T09:58:33;11.20;98.60
46720;DHT22;32452;51.382;-0.002;2024-03-02T10:01:19;10.40;99.60
46720;DHT22;32452;51.382;-0.002;2024-03-02T10:04:05;9.70;99.90
46720;DHT22;32452;51.382;-0.002;2024-03-02T10:06:51;9.10;99.90
46720;DHT22;32452;51.382;-0.002;2024-03-02T10:09:38;9.30;99.90
46720;DHT22;32452;51.382;-0.002;2024-03-02T10:12:24;9.80;99.90
46720;DHT22;32452;51.382;-0.002;2024-03-02T10:15:10;9.80;99.90
46720;DHT22;32452;51.382;-0.002;2024-03-02T10:17:55;9.50;99.90
46720;DHT22;32452;51.382;-0.002;2024-03-02T10:20:41;9.50;99.90
46720;DHT22;32452;51.382;-0.002;2024-03-02T10:23:27;10.00;99.90
46720;DHT22;32452;51.382;-0.002;2024-03-02T10:26:18;10.10;99.90
46720;DHT22;32452;51.382;-0.002;2024-03-02T10:29:04;9.80;99.90
46720;DHT22;32452;51.382;-0.002;2024-03-02T10:31:50;9.60;99.90
46720;DHT22;32452;51.382;-0.002;2024-03-02T10:34:40;9.30;99.90
46720;DHT22;32452;51.382;-0.002;2024-03-02T10:37:26;9.10;99.90
46720;DHT22;32452;51.382;-0.002;2024-03-02T10:40:13;8.80;99.90
46720;DHT22;32452;51.382;-0.002;2024-03-02T10:42:59;8.50;99.90
46720;DHT22;32452;51.382;-0.002;2024-03-02T10:45:49;8.30;99.90
46720;DHT22;32452;51.382;-0.002;2024-03-02T10:48:36;8.20;99.90
46720;DHT22;32452;51.382;-0.002;2024-03-02T10:51:29;8.00;99.90
46720;DHT22;32452;51.382;-0.002;2024-03-02T10:54:16;7.80;99.90
46720;DHT22;32452;51.382;-0.002;2024-03-02T10:57:04;7.60;99.90
46720;DHT22;32452;51.382;-0.002;2024-03-02T10:59:53;7.50;99.90
46720;DHT22;32452;51.382;-0.002;2024-03-02T11:02:50;7.50;99.90
46720;DHT22;32452;51.382;-0.002;2024-03-02T11:05:38;7.40;99.90
46720;DHT22;32452;51.382;-0.002;2024-03-02T11:08:24;7.40;99.90
46720;DHT22;32452;51.382;-0.002;2024-03-02T11:11:16;7.40;99.90
46720;DHT22;32452;51.382;-0.002;2024-03-02T11:14:07;7.50;99.90
46720;DHT22;32452;51.382;-0.002;2024-03-02T11:17:02;7.40;99.90
46720;DHT22;32452;51.382;-0.002;2024-03-02T11:19:49;7.40;99.90
46720;DHT22;32452;51.382;-0.002;2024-03-02T11:22:36;7.30;99.90
46720;DHT22;32452;51.382;-0.002;2024-03-02T11:25:26;7.20;99.90
46720;DHT22;32452;51.382;-0.002;2024-03-02T11:28:12;7.20;99.90
46720;DHT22;32452;51.382;-0.002;2024-03-02T11:30:58;7.30;99.90
46720;DHT22;32452;51.382;-0.002;2024-03-02T11:33:43;7.40;99.90
46720;DHT22;32452;51.382;-0.002;2024-03-02T11:36:29;7.50;99.90
46720;DHT22;32452;51.382;-0.002;2024-03-02T11:39:18;7.80;99.90
46720;DHT22;32452;51.382;-0.002;2024-03-02T11:42:08;8.40;99.90
46720;DHT22;32452;51.382;-0.002;2024-03-02T11:44:56;9.20;99.90
46720;DHT22;32452;51.382;-0.002;2024-03-02T11:47:49;9.80;99.90
46720;DHT22;32452;51.382;-0.002;2024-03-02T11:50:40;10.20;99.90
46720;DHT22;32452;51.382;-0.002;2024-03-02T11:53:27;10.40;99.90
46720;DHT22;32452;51.382;-0.002;2024-03-02T11:56:22;10.60;99.90
46720;DHT22;32452;51.382;-0.002;2024-03-02T11:59:10;10.70;99.90
46720;DHT22;32452;51.382;-0.002;2024-03-02T12:01:57;10.70;99.90
46720;DHT22;32452;51.382;-0.002;2024-03-02T12:04:44;10.80;99.90
46720;DHT22;32452;51.382;-0.002;2024-03-02T12:07:30;11.00;99.90
46720;DHT22;32452;51.382;-0.002;2024-03-02T12:10:17;11.10;99.90
46720;DHT22;32452;51.382;-0.002;2024-03-02T12:13:05;11.00;99.90
46720;DHT22;32452;51.382;-0.002;2024-03-02T12:15:55;10.80;99.90
46720;DHT22;32452;51.382;-0.002;2024-03-02T12:18:42;10.60;99.90
46720;DHT22;32452;51.382;-0.002;2024-03-02T12:21:33;10.30;99.90
46720;DHT22;32452;51.382;-0.002;2024-03-02T12:24:19;10.00;99.90
46720;DHT22;32452;51.382;-0.002;2024-03-02T12:27:06;9.90;99.90
46720;DHT22;32452;51.382;-0.002;2024-03-02T12:29:52;9.90;99.90
46720;DHT22;32452;51.382;-0.002;2024-03-02T12:32:37;10.30;99.90
46720;DHT22;32452;51.382;-0.002;2024-03-02T12:35:24;10.70;99.90
46720;DHT22;32452;51.382;-0.002;2024-03-02T12:38:11;10.90;99.90
46720;DHT22;32452;51.382;-0.002;2024-03-02T12:40:56;11.00;99.90
46720;DHT22;32452;51.382;-0.002;2024-03-02T12:43:42;11.10;99.90
46720;DHT22;32452;51.382;-0.002;2024-03-02T12:46:28;11.30;99.90
46720;DHT22;32452;51.382;-0.002;2024-03-02T12:49:15;11.50;99.90
46720;DHT22;32452;51.382;-0.002;2024-03-02T12:52:01;11.90;99.90
46720;DHT22;32452;51.382;-0.002;2024-03-02T12:54:48;12.00;99.90
46720;DHT22;32452;51.382;-0.002;2024-03-02T12:57:36;12.20;99.90
46720;DHT22;32452;51.382;-0.002;2024-03-02T13:00:23;12.40;99.90
46720;DHT22;32452;51.382;-0.002;2024-03-02T13:03:09;12.40;99.90
46720;DHT22;32452;51.382;-0.002;2024-03-02T13:05:58;12.40;99.90
46720;DHT22;32452;51.382;-0.002;2024-03-02T13:08:45;12.10;98.90
46720;DHT22;32452;51.382;-0.002;2024-03-02T13:11:31;11.90;98.80
46720;DHT22;32452;51.382;-0.002;2024-03-02T13:14:16;11.80;99.30
46720;DHT22;32452;51.382;-0.002;2024-03-02T13:17:09;12.00;99.60
46720;DHT22;32452;51.382;-0.002;2024-03-02T13:19:58;12.10;99.30
46720;DHT22;32452;51.382;-0.002;2024-03-02T13:22:44;12.40;99.00
46720;DHT22;32452;51.382;-0.002;2024-03-02T13:25:30;12.70;97.60
46720;DHT22;32452;51.382;-0.002;2024-03-02T13:28:18;12.60;96.30
46720;DHT22;32452;51.382;-0.002;2024-03-02T13:31:04;12.20;95.90
46720;DHT22;32452;51.382;-0.002;2024-03-02T13:33:49;11.90;95.70
46720;DHT22;32452;51.382;-0.002;2024-03-02T13:36:35;11.70;95.90
46720;DHT22;32452;51.382;-0.002;2024-03-02T13:39:21;11.50;96.00
46720;DHT22;32452;51.382;-0.002;2024-03-02T13:42:11;11.50;96.50
46720;DHT22;32452;51.382;-0.002;2024-03-02T13:44:58;11.70;97.60
46720;DHT22;32452;51.382;-0.002;2024-03-02T13:47:45;12.00;97.10
46720;DHT22;32452;51.382;-0.002;2024-03-02T13:50:30;12.30;97.30
46720;DHT22;32452;51.382;-0.002;2024-03-02T13:53:16;12.70;96.50
46720;DHT22;32452;51.382;-0.002;2024-03-02T13:56:02;13.00;95.90
46720;DHT22;32452;51.382;-0.002;2024-03-02T13:58:48;13.10;93.30
46720;DHT22;32452;51.382;-0.002;2024-03-02T14:01:34;13.20;90.80
46720;DHT22;32452;51.382;-0.002;2024-03-02T14:04:20;13.20;89.30
46720;DHT22;32452;51.382;-0.002;2024-03-02T14:07:06;13.10;86.70
46720;DHT22;32452;51.382;-0.002;2024-03-02T14:09:57;13.00;82.90
46720;DHT22;32452;51.382;-0.002;2024-03-02T14:12:43;12.60;81.10
46720;DHT22;32452;51.382;-0.002;2024-03-02T14:15:29;12.40;80.90
46720;DHT22;32452;51.382;-0.002;2024-03-02T14:18:16;12.10;79.20
46720;DHT22;32452;51.382;-0.002;2024-03-02T14:21:01;11.70;80.40
46720;DHT22;32452;51.382;-0.002;2024-03-02T14:23:48;11.60;82.20
46720;DHT22;32452;51.382;-0.002;2024-03-02T14:26:35;11.60;82.80
46720;DHT22;32452;51.382;-0.002;2024-03-02T14:29:22;11.60;81.50
46720;DHT22;32452;51.382;-0.002;2024-03-02T14:32:08;11.40;80.80
46720;DHT22;32452;51.382;-0.002;2024-03-02T14:34:54;11.20;81.30
46720;DHT22;32452;51.382;-0.002;2024-03-02T14:37:41;11.00;80.20
46720;DHT22;32452;51.382;-0.002;2024-03-02T14:40:26;11.00;80.60
46720;DHT22;32452;51.382;-0.002;2024-03-02T14:43:14;11.00;81.20
46720;DHT22;32452;51.382;-0.002;2024-03-02T14:46:00;11.00;81.50
46720;DHT22;32452;51.382;-0.002;2024-03-02T14:48:46;11.00;81.40
46720;DHT22;32452;51.382;-0.002;2024-03-02T14:51:32;10.90;81.30
46720;DHT22;32452;51.382;-0.002;2024-03-02T14:54:18;10.80;81.30
46720;DHT22;32452;51.382;-0.002;2024-03-02T14:57:04;10.70;81.70
46720;DHT22;32452;51.382;-0.002;2024-03-02T14:59:50;10.70;82.70
46720;DHT22;32452;51.382;-0.002;2024-03-02T15:02:37;10.80;82.80
46720;DHT22;32452;51.382;-0.002;2024-03-02T15:05:23;10.70;82.70
46720;DHT22;32452;51.382;-0.002;2024-03-02T15:08:11;10.80;82.90
46720;DHT22;32452;51.382;-0.002;2024-03-02T15:10:57;10.80;82.80
46720;DHT22;32452;51.382;-0.002;2024-03-02T15:13:54;10.80;82.80
46720;DHT22;32452;51.382;-0.002;2024-03-02T15:16:40;10.80;82.20
46720;DHT22;32452;51.382;-0.002;2024-03-02T15:19:27;10.80;82.20
46720;DHT22;32452;51.382;-0.002;2024-03-02T15:22:12;10.80;82.10
46720;DHT22;32452;51.382;-0.002;2024-03-02T15:24:58;10.80;82.90
46720;DHT22;32452;51.382;-0.002;2024-03-02T15:27:44;10.80;83.10
46720;DHT22;32452;51.382;-0.002;2024-03-02T15:30:30;10.80;83.40
46720;DHT22;32452;51.382;-0.002;2024-03-02T15:33:15;10.80;83.40
46720;DHT22;32452;51.382;-0.002;2024-03-02T15:36:03;10.70;83.40
46720;DHT22;32452;51.382;-0.002;2024-03-02T15:38:50;10.60;83.90
46720;DHT22;32452;51.382;-0.002;2024-03-02T15:41:35;10.50;83.60
46720;DHT22;32452;51.382;-0.002;2024-03-02T15:44:21;10.30;84.40
46720;DHT22;32452;51.382;-0.002;2024-03-02T15:47:07;10.30;86.00
46720;DHT22;32452;51.382;-0.002;2024-03-02T15:49:53;10.20;87.50
46720;DHT22;32452;51.382;-0.002;2024-03-02T15:52:38;10.10;88.10
46720;DHT22;32452;51.382;-0.002;2024-03-02T15:55:26;9.90;88.90
46720;DHT22;32452;51.382;-0.002;2024-03-02T15:58:17;9.80;89.80
46720;DHT22;32452;51.382;-0.002;2024-03-02T16:01:03;9.70;90.10
46720;DHT22;32452;51.382;-0.002;2024-03-02T16:03:49;9.70;90.30
46720;DHT22;32452;51.382;-0.002;2024-03-02T16:06:36;9.70;90.20
46720;DHT22;32452;51.382;-0.002;2024-03-02T16:09:23;9.60;90.10
46720;DHT22;32452;51.382;-0.002;2024-03-02T16:12:08;9.60;90.00
46720;DHT22;32452;51.382;-0.002;2024-03-02T16:14:54;9.50;90.00
46720;DHT22;32452;51.382;-0.002;2024-03-02T16:17:40;9.50;90.20
46720;DHT22;32452;51.382;-0.002;2024-03-02T16:20:25;9.50;90.30
46720;DHT22;32452;51.382;-0.002;2024-03-02T16:23:11;9.50;90.50
46720;DHT22;32452;51.382;-0.002;2024-03-02T16:25:57;9.50;90.50
46720;DHT22;32452;51.382;-0.002;2024-03-02T16:29:01;9.50;90.10
46720;DHT22;32452;51.382;-0.002;2024-03-02T16:31:49;9.50;89.80
46720;DHT22;32452;51.382;-0.002;2024-03-02T16:34:35;9.40;89.50
46720;DHT22;32452;51.382;-0.002;2024-03-02T16:37:23;9.30;88.40
46720;DHT22;32452;51.382;-0.002;2024-03-02T16:40:12;9.30;88.70
46720;DHT22;32452;51.382;-0.002;2024-03-02T16:43:00;9.20;88.80
46720;DHT22;32452;51.382;-0.002;2024-03-02T16:45:46;9.20;88.90
46720;DHT22;32452;51.382;-0.002;2024-03-02T16:48:32;9.10;89.10
46720;DHT22;32452;51.382;-0.002;2024-03-02T16:51:22;9.00;89.70
46720;DHT22;32452;51.382;-0.002;2024-03-02T16:54:08;8.90;90.10
46720;DHT22;32452;51.382;-0.002;2024-03-02T16:56:54;8.80;90.30
46720;DHT22;32452;51.382;-0.002;2024-03-02T16:59:40;8.70;90.50
46720;DHT22;32452;51.382;-0.002;2024-03-02T17:02:26;8.60;90.90
46720;DHT22;32452;51.382;-0.002;2024-03-02T17:05:12;8.50;91.30
46720;DHT22;32452;51.382;-0.002;2024-03-02T17:07:58;8.50;91.80
46720;DHT22;32452;51.382;-0.002;2024-03-02T17:10:44;8.40;92.20
46720;DHT22;32452;51.382;-0.002;2024-03-02T17:13:31;8.30;92.60
46720;DHT22;32452;51.382;-0.002;2024-03-02T17:16:16;8.20;92.80
46720;DHT22;32452;51.382;-0.002;2024-03-02T17:19:02;8.20;93.30
46720;DHT22;32452;51.382;-0.002;2024-03-02T17:21:48;8.10;93.50
46720;DHT22;32452;51.382;-0.002;2024-03-02T17:24:34;8.00;93.70
46720;DHT22;32452;51.382;-0.002;2024-03-02T17:27:19;7.90;93.90
46720;DHT22;32452;51.382;-0.002;2024-03-02T17:30:05;7.90;94.10
46720;DHT22;32452;51.382;-0.002;2024-03-02T17:32:51;7.80;94.30